sensor_id;sensor_type;location;lat;lon;timestamp;P1;durP1;ratioP1;P2;durP2;ratioP2
9489;SDS011;4783;42.734;23.288;2023-04-15T07:19:02;12.88;;;7.13;;
9489;SDS011;4783;42.734;23.288;2023-04-15T07:21:27;13.32;;;6.55;;
9489;SDS011;4783;42.734;23.288;2023-04-15T07:35:14;11.77;;;7.07;;
9489;SDS011;4783;42.734;23.288;2023-04-15T07:44:59;11.35;;;4.88;;
9489;SDS011;4783;42.734;23.288;2023-04-15T07:47:25;10.65;;;5.65;;
9489;SDS011;4783;42.734;23.288;2023-04-15T08:49:44;4.65;;;2.80;;
9489;SDS011;4783;42.734;23.288;2023-04-15T08:52:10;2.90;;;2.42;;
9489;SDS011;4783;42.734;23.288;2023-04-15T08:54:36;3.55;;;2.38;;
9489;SDS011;4783;42.734;23.288;2023-04-15T08:57:02;3.20;;;2.40;;
9489;SDS011;4783;42.734;23.288;2023-04-15T08:59:30;3.65;;;2.40;;
9489;SDS011;4783;42.734;23.288;2023-04-15T09:01:56;3.65;;;2.38;;
9489;SDS011;4783;42.734;23.288;2023-04-15T09:04:22;5.80;;;2.63;;
9489;SDS011;4783;42.734;23.288;2023-04-15T09:06:47;4.25;;;2.20;;
9489;SDS011;4783;42.734;23.288;2023-04-15T09:09:12;3.90;;;2.10;;
9489;SDS011;4783;42.734;23.288;2023-04-15T09:11:38;2.67;;;2.25;;
9489;SDS011;4783;42.734;23.288;2023-04-15T09:14:04;7.18;;;2.00;;
9489;SDS011;4783;42.734;23.288;2023-04-15T09:16:29;5.80;;;2.30;;
9489;SDS011;4783;42.734;23.288;2023-04-15T09:18:54;3.95;;;2.45;;
9489;SDS011;4783;42.734;23.288;2023-04-15T09:21:20;4.68;;;2.00;;
9489;SDS011;4783;42.734;23.288;2023-04-15T09:23:56;4.63;;;2.20;;
9489;SDS011;4783;42.734;23.288;2023-04-15T09:26:35;1.80;;;1.60;;
9489;SDS011;4783;42.734;23.288;2023-04-15T09:29:04;2.20;;;1.83;;
9489;SDS011;4783;42.734;23.288;2023-04-15T09:31:31;5.13;;;2.28;;
9489;SDS011;4783;42.734;23.288;2023-04-15T09:33:56;2.50;;;2.00;;
9489;SDS011;4783;42.734;23.288;2023-04-15T09:36:22;2.28;;;2.03;;
9489;SDS011;4783;42.734;23.288;2023-04-15T09:38:55;3.08;;;1.92;;
9489;SDS011;4783;42.734;23.288;2023-04-15T09:41:21;3.90;;;2.30;;
9489;SDS011;4783;42.734;23.288;2023-04-15T09:43:47;2.53;;;2.33;;
9489;SDS011;4783;42.734;23.288;2023-04-15T09:46:12;3.45;;;2.55;;
9489;SDS011;4783;42.734;23.288;2023-04-15T09:48:37;3.28;;;2.00;;
9489;SDS011;4783;42.734;23.288;2023-04-15T09:51:03;5.10;;;2.28;;
9489;SDS011;4783;42.734;23.288;2023-04-15T09:53:28;5.95;;;2.35;;
9489;SDS011;4783;42.734;23.288;2023-04-15T09:55:54;3.58;;;2.35;;
9489;SDS011;4783;42.734;23.288;2023-04-15T09:58:24;10.90;;;2.40;;
9489;SDS011;4783;42.734;23.288;2023-04-15T10:00:50;3.63;;;1.90;;
9489;SDS011;4783;42.734;23.288;2023-04-15T10:03:18;3.60;;;2.05;;
9489;SDS011;4783;42.734;23.288;2023-04-15T10:05:43;3.05;;;2.10;;
9489;SDS011;4783;42.734;23.288;2023-04-15T10:08:09;3.40;;;2.00;;
9489;SDS011;4783;42.734;23.288;2023-04-15T10:10:35;3.10;;;2.28;;
9489;SDS011;4783;42.734;23.288;2023-04-15T10:13:00;3.88;;;2.45;;
9489;SDS011;4783;42.734;23.288;2023-04-15T10:15:26;4.68;;;2.20;;
9489;SDS011;4783;42.734;23.288;2023-04-15T10:17:52;4.57;;;2.05;;
9489;SDS011;4783;42.734;23.288;2023-04-15T10:20:18;3.00;;;2.05;;
9489;SDS011;4783;42.734;23.288;2023-04-15T10:22:44;3.92;;;2.17;;
9489;SDS011;4783;42.734;23.288;2023-04-15T10:25:10;3.50;;;2.60;;
9489;SDS011;4783;42.734;23.288;2023-04-15T10:27:36;4.07;;;2.00;;
9489;SDS011;4783;42.734;23.288;2023-04-15T10:30:03;8.07;;;2.42;;
9489;SDS011;4783;42.734;23.288;2023-04-15T10:32:29;2.72;;;2.10;;
9489;SDS011;4783;42.734;23.288;2023-04-15T10:34:55;7.22;;;2.53;;
9489;SDS011;4783;42.734;23.288;2023-04-15T10:37:21;2.47;;;1.98;;
9489;SDS011;4783;42.734;23.288;2023-04-15T10:39:47;5.32;;;2.28;;
9489;SDS011;4783;42.734;23.288;2023-04-15T10:42:13;4.32;;;2.30;;
9489;SDS011;4783;42.734;23.288;2023-04-15T10:44:43;3.35;;;2.47;;
9489;SDS011;4783;42.734;23.288;2023-04-15T10:47:09;5.80;;;2.30;;
9489;SDS011;4783;42.734;23.288;2023-04-15T10:49:35;3.42;;;2.00;;
9489;SDS011;4783;42.734;23.288;2023-04-15T10:52:07;2.25;;;1.98;;
9489;SDS011;4783;42.734;23.288;2023-04-15T10:54:32;3.00;;;2.40;;
9489;SDS011;4783;42.734;23.288;2023-04-15T10:59:29;4.35;;;2.00;;
9489;SDS011;4783;42.734;23.288;2023-04-15T11:01:55;2.72;;;1.88;;
9489;SDS011;4783;42.734;23.288;2023-04-15T11:07:05;4.30;;;2.42;;
9489;SDS011;4783;42.734;23.288;2023-04-15T11:09:31;2.78;;;1.85;;
9489;SDS011;4783;42.734;23.288;2023-04-15T11:12:03;3.60;;;2.00;;
9489;SDS011;4783;42.734;23.288;2023-04-15T11:14:28;3.75;;;2.10;;
9489;SDS011;4783;42.734;23.288;2023-04-15T11:16:54;4.07;;;2.20;;
9489;SDS011;4783;42.734;23.288;2023-04-15T11:19:19;4.00;;;2.08;;
9489;SDS011;4783;42.734;23.288;2023-04-15T11:21:45;4.35;;;1.90;;
9489;SDS011;4783;42.734;23.288;2023-04-15T11:24:10;4.75;;;2.28;;
9489;SDS011;4783;42.734;23.288;2023-04-15T11:26:35;3.75;;;1.95;;
9489;SDS011;4783;42.734;23.288;2023-04-15T11:29:00;3.00;;;1.92;;
9489;SDS011;4783;42.734;23.288;2023-04-15T11:31:26;5.18;;;2.25;;
9489;SDS011;4783;42.734;23.288;2023-04-15T11:33:56;4.63;;;2.38;;
9489;SDS011;4783;42.734;23.288;2023-04-15T11:36:23;3.55;;;2.17;;
9489;SDS011;4783;42.734;23.288;2023-04-15T11:38:48;4.25;;;2.10;;
9489;SDS011;4783;42.734;23.288;2023-04-15T11:41:14;4.82;;;2.13;;
9489;SDS011;4783;42.734;23.288;2023-04-15T11:43:39;3.97;;;2.30;;
9489;SDS011;4783;42.734;23.288;2023-04-15T11:46:05;3.40;;;2.10;;
9489;SDS011;4783;42.734;23.288;2023-04-15T11:48:31;2.38;;;2.05;;
9489;SDS011;4783;42.734;23.288;2023-04-15T11:51:06;2.30;;;1.90;;
9489;SDS011;4783;42.734;23.288;2023-04-15T11:56:03;2.85;;;2.10;;
9489;SDS011;4783;42.734;23.288;2023-04-15T11:58:29;2.28;;;1.50;;
9489;SDS011;4783;42.734;23.288;2023-04-15T12:00:56;2.00;;;1.75;;
9489;SDS011;4783;42.734;23.288;2023-04-15T12:03:28;2.90;;;1.85;;
9489;SDS011;4783;42.734;23.288;2023-04-15T12:08:47;6.70;;;2.25;;
9489;SDS011;4783;42.734;23.288;2023-04-15T12:11:13;3.92;;;1.70;;
9489;SDS011;4783;42.734;23.288;2023-04-15T12:13:42;3.08;;;2.05;;
9489;SDS011;4783;42.734;23.288;2023-04-15T12:16:07;3.63;;;2.00;;
9489;SDS011;4783;42.734;23.288;2023-04-15T12:18:33;3.13;;;1.60;;
9489;SDS011;4783;42.734;23.288;2023-04-15T12:21:03;2.67;;;1.60;;
9489;SDS011;4783;42.734;23.288;2023-04-15T12:23:29;2.50;;;1.60;;
9489;SDS011;4783;42.734;23.288;2023-04-15T12:25:54;2.30;;;1.50;;
9489;SDS011;4783;42.734;23.288;2023-04-15T12:28:19;2.83;;;1.77;;
9489;SDS011;4783;42.734;23.288;2023-04-15T12:30:48;7.47;;;1.70;;
9489;SDS011;4783;42.734;23.288;2023-04-15T12:33:15;3.13;;;1.55;;
9489;SDS011;4783;42.734;23.288;2023-04-15T12:35:40;3.72;;;2.00;;
9489;SDS011;4783;42.734;23.288;2023-04-15T12:38:05;3.92;;;2.05;;
9489;SDS011;4783;42.734;23.288;2023-04-15T12:40:33;3.50;;;2.22;;
9489;SDS011;4783;42.734;23.288;2023-04-15T12:42:58;4.82;;;2.10;;
9489;SDS011;4783;42.734;23.288;2023-04-15T12:45:23;5.30;;;1.88;;
9489;SDS011;4783;42.734;23.288;2023-04-15T12:47:48;1.75;;;1.63;;
9489;SDS011;4783;42.734;23.288;2023-04-15T12:50:13;3.75;;;1.88;;
9489;SDS011;4783;42.734;23.288;2023-04-15T12:52:39;1.77;;;1.67;;
9489;SDS011;4783;42.734;23.288;2023-04-15T12:55:04;2.65;;;1.60;;
9489;SDS011;4783;42.734;23.288;2023-04-15T12:57:29;3.65;;;1.90;;
9489;SDS011;4783;42.734;23.288;2023-04-15T12:59:55;1.75;;;1.55;;
9489;SDS011;4783;42.734;23.288;2023-04-15T13:02:20;1.67;;;1.58;;
9489;SDS011;4783;42.734;23.288;2023-04-15T13:04:49;3.38;;;1.58;;
9489;SDS011;4783;42.734;23.288;2023-04-15T13:07:14;3.58;;;1.80;;
9489;SDS011;4783;42.734;23.288;2023-04-15T13:09:39;3.17;;;1.42;;
9489;SDS011;4783;42.734;23.288;2023-04-15T13:12:05;2.13;;;1.50;;
9489;SDS011;4783;42.734;23.288;2023-04-15T13:14:30;3.00;;;1.42;;
9489;SDS011;4783;42.734;23.288;2023-04-15T13:16:55;3.05;;;1.50;;
9489;SDS011;4783;42.734;23.288;2023-04-15T13:19:21;4.72;;;1.75;;
9489;SDS011;4783;42.734;23.288;2023-04-15T13:21:47;2.00;;;1.40;;
9489;SDS011;4783;42.734;23.288;2023-04-15T13:24:12;5.57;;;1.75;;
9489;SDS011;4783;42.734;23.288;2023-04-15T13:26:37;2.67;;;1.70;;
9489;SDS011;4783;42.734;23.288;2023-04-15T13:29:03;4.30;;;1.80;;
9489;SDS011;4783;42.734;23.288;2023-04-15T13:31:28;2.60;;;1.30;;
9489;SDS011;4783;42.734;23.288;2023-04-15T13:33:53;3.95;;;1.55;;
9489;SDS011;4783;42.734;23.288;2023-04-15T13:36:18;2.72;;;1.88;;
9489;SDS011;4783;42.734;23.288;2023-04-15T13:38:44;2.50;;;1.48;;
9489;SDS011;4783;42.734;23.288;2023-04-15T13:41:09;3.10;;;1.52;;
9489;SDS011;4783;42.734;23.288;2023-04-15T13:43:35;2.08;;;1.50;;
9489;SDS011;4783;42.734;23.288;2023-04-15T13:46:00;5.25;;;1.80;;
9489;SDS011;4783;42.734;23.288;2023-04-15T13:48:26;2.65;;;1.45;;
9489;SDS011;4783;42.734;23.288;2023-04-15T13:50:51;2.83;;;1.55;;
9489;SDS011;4783;42.734;23.288;2023-04-15T13:53:16;6.18;;;1.45;;
9489;SDS011;4783;42.734;23.288;2023-04-15T13:55:41;3.67;;;1.85;;
9489;SDS011;4783;42.734;23.288;2023-04-15T13:58:10;6.68;;;1.50;;
9489;SDS011;4783;42.734;23.288;2023-04-15T14:00:35;3.92;;;1.27;;
9489;SDS011;4783;42.734;23.288;2023-04-15T14:03:01;2.63;;;1.20;;
9489;SDS011;4783;42.734;23.288;2023-04-15T14:05:26;2.13;;;1.27;;
9489;SDS011;4783;42.734;23.288;2023-04-15T14:07:51;2.78;;;1.10;;
9489;SDS011;4783;42.734;23.288;2023-04-15T14:10:16;1.90;;;1.20;;
9489;SDS011;4783;42.734;23.288;2023-04-15T14:12:42;4.53;;;2.38;;
9489;SDS011;4783;42.734;23.288;2023-04-15T14:15:07;3.25;;;1.50;;
9489;SDS011;4783;42.734;23.288;2023-04-15T14:17:32;1.40;;;1.17;;
9489;SDS011;4783;42.734;23.288;2023-04-15T14:19:58;2.58;;;1.20;;
9489;SDS011;4783;42.734;23.288;2023-04-15T14:22:23;2.20;;;1.10;;
9489;SDS011;4783;42.734;23.288;2023-04-15T14:24:48;2.65;;;1.25;;
9489;SDS011;4783;42.734;23.288;2023-04-15T14:27:14;1.73;;;1.20;;
9489;SDS011;4783;42.734;23.288;2023-04-15T14:29:39;1.95;;;1.10;;
9489;SDS011;4783;42.734;23.288;2023-04-15T14:32:04;3.28;;;1.15;;
9489;SDS011;4783;42.734;23.288;2023-04-15T14:34:30;2.88;;;1.38;;
9489;SDS011;4783;42.734;23.288;2023-04-15T14:36:56;2.85;;;1.10;;
9489;SDS011;4783;42.734;23.288;2023-04-15T14:39:21;3.00;;;1.27;;
9489;SDS011;4783;42.734;23.288;2023-04-15T14:41:46;2.28;;;1.13;;
9489;SDS011;4783;42.734;23.288;2023-04-15T14:44:11;2.65;;;1.15;;
9489;SDS011;4783;42.734;23.288;2023-04-15T14:46:37;4.25;;;1.10;;
9489;SDS011;4783;42.734;23.288;2023-04-15T14:49:02;1.92;;;1.27;;
9489;SDS011;4783;42.734;23.288;2023-04-15T14:51:27;2.92;;;1.13;;
9489;SDS011;4783;42.734;23.288;2023-04-15T14:53:53;2.05;;;1.20;;
9489;SDS011;4783;42.734;23.288;2023-04-15T14:56:18;3.50;;;1.45;;
9489;SDS011;4783;42.734;23.288;2023-04-15T14:58:43;3.28;;;1.60;;
9489;SDS011;4783;42.734;23.288;2023-04-15T15:01:08;4.35;;;1.85;;
9489;SDS011;4783;42.734;23.288;2023-04-15T15:03:34;3.20;;;1.60;;
9489;SDS011;4783;42.734;23.288;2023-04-15T15:05:59;3.17;;;1.50;;
9489;SDS011;4783;42.734;23.288;2023-04-15T15:08:24;2.78;;;1.65;;
9489;SDS011;4783;42.734;23.288;2023-04-15T15:10:50;3.15;;;1.55;;
9489;SDS011;4783;42.734;23.288;2023-04-15T15:13:15;2.65;;;1.63;;
9489;SDS011;4783;42.734;23.288;2023-04-15T15:15:41;1.73;;;1.27;;
9489;SDS011;4783;42.734;23.288;2023-04-15T15:18:06;3.63;;;1.20;;
9489;SDS011;4783;42.734;23.288;2023-04-15T15:20:31;2.85;;;1.50;;
9489;SDS011;4783;42.734;23.288;2023-04-15T15:22:58;3.47;;;1.30;;
9489;SDS011;4783;42.734;23.288;2023-04-15T15:25:24;3.00;;;1.17;;
9489;SDS011;4783;42.734;23.288;2023-04-15T15:27:49;1.35;;;1.00;;
9489;SDS011;4783;42.734;23.288;2023-04-15T15:30:15;1.80;;;1.15;;
9489;SDS011;4783;42.734;23.288;2023-04-15T15:32:41;1.80;;;1.33;;
9489;SDS011;4783;42.734;23.288;2023-04-15T15:35:07;2.72;;;1.33;;
9489;SDS011;4783;42.734;23.288;2023-04-15T15:37:33;5.90;;;1.33;;
9489;SDS011;4783;42.734;23.288;2023-04-15T15:39:58;2.67;;;1.20;;
9489;SDS011;4783;42.734;23.288;2023-04-15T15:42:24;2.45;;;1.20;;
9489;SDS011;4783;42.734;23.288;2023-04-15T15:44:50;5.32;;;1.25;;
9489;SDS011;4783;42.734;23.288;2023-04-15T15:47:17;2.42;;;1.33;;
9489;SDS011;4783;42.734;23.288;2023-04-15T15:49:42;3.38;;;1.90;;
9489;SDS011;4783;42.734;23.288;2023-04-15T15:52:07;1.88;;;1.30;;
9489;SDS011;4783;42.734;23.288;2023-04-15T15:54:32;2.38;;;1.50;;
9489;SDS011;4783;42.734;23.288;2023-04-15T15:56:58;3.47;;;1.42;;
9489;SDS011;4783;42.734;23.288;2023-04-15T15:59:24;4.13;;;1.67;;
9489;SDS011;4783;42.734;23.288;2023-04-15T16:01:49;1.92;;;1.20;;
9489;SDS011;4783;42.734;23.288;2023-04-15T16:04:15;5.68;;;1.50;;
9489;SDS011;4783;42.734;23.288;2023-04-15T16:06:40;3.10;;;1.60;;
9489;SDS011;4783;42.734;23.288;2023-04-15T16:09:07;5.50;;;1.42;;
9489;SDS011;4783;42.734;23.288;2023-04-15T16:11:32;5.75;;;1.83;;
9489;SDS011;4783;42.734;23.288;2023-04-15T16:13:57;2.05;;;1.60;;
9489;SDS011;4783;42.734;23.288;2023-04-15T16:16:23;4.45;;;2.00;;
